sensor_id;sensor_type;location;lat;lon;timestamp;P1;durP1;ratioP1;P2;durP2;ratioP2
41903;SDS011;27586;51.124;4.182;2024-02-14T00:01:03;6.18;;;5.30;;
41903;SDS011;27586;51.124;4.182;2024-02-14T00:03:29;7.97;;;6.30;;
41903;SDS011;27586;51.124;4.182;2024-02-14T00:05:55;5.97;;;5.38;;
41903;SDS011;27586;51.124;4.182;2024-02-14T00:08:22;6.22;;;5.63;;
41903;SDS011;27586;51.124;4.182;2024-02-14T00:10:48;6.63;;;5.75;;
41903;SDS011;27586;51.124;4.182;2024-02-14T00:13:14;7.32;;;5.65;;
41903;SDS011;27586;51.124;4.182;2024-02-14T00:15:40;6.15;;;5.55;;
41903;SDS011;27586;51.124;4.182;2024-02-14T00:18:06;6.18;;;5.57;;
41903;SDS011;27586;51.124;4.182;2024-02-14T00:20:32;6.30;;;5.70;;
41903;SDS011;27586;51.124;4.182;2024-02-14T00:22:58;7.40;;;5.68;;
41903;SDS011;27586;51.124;4.182;2024-02-14T00:25:23;6.38;;;5.70;;
41903;SDS011;27586;51.124;4.182;2024-02-14T00:27:49;5.78;;;5.28;;
41903;SDS011;27586;51.124;4.182;2024-02-14T00:30:15;6.78;;;5.05;;
41903;SDS011;27586;51.124;4.182;2024-02-14T00:32:40;6.22;;;5.22;;
41903;SDS011;27586;51.124;4.182;2024-02-14T00:35:06;6.22;;;5.25;;
41903;SDS011;27586;51.124;4.182;2024-02-14T00:37:32;5.53;;;5.03;;
41903;SDS011;27586;51.124;4.182;2024-02-14T00:39:59;6.18;;;5.57;;
41903;SDS011;27586;51.124;4.182;2024-02-14T00:42:25;6.28;;;5.30;;
41903;SDS011;27586;51.124;4.182;2024-02-14T00:44:50;6.57;;;5.78;;
41903;SDS011;27586;51.124;4.182;2024-02-14T00:47:16;7.65;;;5.45;;
41903;SDS011;27586;51.124;4.182;2024-02-14T00:49:42;7.05;;;5.50;;
41903;SDS011;27586;51.124;4.182;2024-02-14T00:52:07;8.02;;;5.72;;
41903;SDS011;27586;51.124;4.182;2024-02-14T00:54:34;6.80;;;6.10;;
41903;SDS011;27586;51.124;4.182;2024-02-14T00:57:00;7.07;;;5.97;;
41903;SDS011;27586;51.124;4.182;2024-02-14T00:59:25;6.53;;;5.82;;
41903;SDS011;27586;51.124;4.182;2024-02-14T01:01:51;6.70;;;6.07;;
41903;SDS011;27586;51.124;4.182;2024-02-14T01:04:17;6.63;;;5.85;;
41903;SDS011;27586;51.124;4.182;2024-02-14T01:06:43;7.53;;;6.82;;
41903;SDS011;27586;51.124;4.182;2024-02-14T01:09:09;8.70;;;7.03;;
41903;SDS011;27586;51.124;4.182;2024-02-14T01:11:35;7.50;;;6.80;;
41903;SDS011;27586;51.124;4.182;2024-02-14T01:14:03;8.43;;;6.82;;
41903;SDS011;27586;51.124;4.182;2024-02-14T01:16:29;7.22;;;6.43;;
41903;SDS011;27586;51.124;4.182;2024-02-14T01:18:54;7.97;;;6.90;;
41903;SDS011;27586;51.124;4.182;2024-02-14T01:21:20;7.85;;;7.10;;
41903;SDS011;27586;51.124;4.182;2024-02-14T01:23:46;8.90;;;7.20;;
41903;SDS011;27586;51.124;4.182;2024-02-14T01:26:12;8.55;;;7.00;;
41903;SDS011;27586;51.124;4.182;2024-02-14T01:28:37;8.10;;;7.18;;
41903;SDS011;27586;51.124;4.182;2024-02-14T01:31:03;7.15;;;6.45;;
41903;SDS011;27586;51.124;4.182;2024-02-14T01:33:29;8.50;;;6.45;;
41903;SDS011;27586;51.124;4.182;2024-02-14T01:35:55;7.32;;;6.60;;
41903;SDS011;27586;51.124;4.182;2024-02-14T01:38:22;8.05;;;6.60;;
41903;SDS011;27586;51.124;4.182;2024-02-14T01:40:48;8.48;;;7.15;;
41903;SDS011;27586;51.124;4.182;2024-02-14T01:43:14;7.93;;;6.55;;
41903;SDS011;27586;51.124;4.182;2024-02-14T01:45:40;7.80;;;6.60;;
41903;SDS011;27586;51.124;4.182;2024-02-14T01:48:06;7.03;;;6.43;;
41903;SDS011;27586;51.124;4.182;2024-02-14T01:50:32;8.48;;;7.13;;
41903;SDS011;27586;51.124;4.182;2024-02-14T01:52:59;8.75;;;7.13;;
41903;SDS011;27586;51.124;4.182;2024-02-14T01:55:26;8.10;;;6.68;;
41903;SDS011;27586;51.124;4.182;2024-02-14T01:57:53;8.77;;;7.15;;
41903;SDS011;27586;51.124;4.182;2024-02-14T02:00:19;7.80;;;7.10;;
41903;SDS011;27586;51.124;4.182;2024-02-14T02:02:45;8.05;;;7.25;;
41903;SDS011;27586;51.124;4.182;2024-02-14T02:05:14;7.90;;;7.07;;
41903;SDS011;27586;51.124;4.182;2024-02-14T02:07:41;8.50;;;7.07;;
41903;SDS011;27586;51.124;4.182;2024-02-14T02:10:11;8.02;;;7.22;;
41903;SDS011;27586;51.124;4.182;2024-02-14T02:12:37;8.85;;;6.50;;
41903;SDS011;27586;51.124;4.182;2024-02-14T02:15:06;8.23;;;7.13;;
41903;SDS011;27586;51.124;4.182;2024-02-14T02:17:36;8.77;;;7.10;;
41903;SDS011;27586;51.124;4.182;2024-02-14T02:20:01;7.70;;;6.90;;
41903;SDS011;27586;51.124;4.182;2024-02-14T02:22:27;10.05;;;7.22;;
41903;SDS011;27586;51.124;4.182;2024-02-14T02:24:57;7.15;;;6.45;;
41903;SDS011;27586;51.124;4.182;2024-02-14T02:27:23;8.65;;;6.18;;
41903;SDS011;27586;51.124;4.182;2024-02-14T02:29:49;7.45;;;6.75;;
41903;SDS011;27586;51.124;4.182;2024-02-14T02:32:15;8.07;;;6.32;;
41903;SDS011;27586;51.124;4.182;2024-02-14T02:34:42;8.30;;;6.45;;
41903;SDS011;27586;51.124;4.182;2024-02-14T02:37:10;7.13;;;6.40;;
41903;SDS011;27586;51.124;4.182;2024-02-14T02:39:36;6.93;;;6.25;;
41903;SDS011;27586;51.124;4.182;2024-02-14T02:42:03;7.78;;;6.40;;
41903;SDS011;27586;51.124;4.182;2024-02-14T02:44:28;7.97;;;6.43;;
41903;SDS011;27586;51.124;4.182;2024-02-14T02:46:56;7.15;;;6.55;;
41903;SDS011;27586;51.124;4.182;2024-02-14T02:49:21;8.70;;;7.80;;
41903;SDS011;27586;51.124;4.182;2024-02-14T02:51:47;8.73;;;7.82;;
41903;SDS011;27586;51.124;4.182;2024-02-14T02:54:13;8.30;;;7.40;;
41903;SDS011;27586;51.124;4.182;2024-02-14T02:56:39;9.45;;;8.57;;
41903;SDS011;27586;51.124;4.182;2024-02-14T02:59:07;8.88;;;7.80;;
41903;SDS011;27586;51.124;4.182;2024-02-14T03:01:35;9.23;;;8.32;;
41903;SDS011;27586;51.124;4.182;2024-02-14T03:04:01;9.38;;;8.38;;
41903;SDS011;27586;51.124;4.182;2024-02-14T03:06:28;10.38;;;8.43;;
41903;SDS011;27586;51.124;4.182;2024-02-14T03:08:53;8.88;;;7.95;;
41903;SDS011;27586;51.124;4.182;2024-02-14T03:11:21;9.30;;;8.40;;
41903;SDS011;27586;51.124;4.182;2024-02-14T03:13:47;9.40;;;8.50;;
41903;SDS011;27586;51.124;4.182;2024-02-14T03:16:14;9.02;;;8.15;;
41903;SDS011;27586;51.124;4.182;2024-02-14T03:18:42;9.05;;;8.15;;
41903;SDS011;27586;51.124;4.182;2024-02-14T03:21:08;9.15;;;8.00;;
41903;SDS011;27586;51.124;4.182;2024-02-14T03:23:34;11.10;;;8.48;;
41903;SDS011;27586;51.124;4.182;2024-02-14T03:26:00;8.65;;;7.68;;
41903;SDS011;27586;51.124;4.182;2024-02-14T03:28:25;9.40;;;7.45;;
41903;SDS011;27586;51.124;4.182;2024-02-14T03:30:52;8.85;;;7.20;;
41903;SDS011;27586;51.124;4.182;2024-02-14T03:33:18;9.02;;;7.07;;
41903;SDS011;27586;51.124;4.182;2024-02-14T03:35:44;8.57;;;7.03;;
41903;SDS011;27586;51.124;4.182;2024-02-14T03:38:10;8.13;;;7.43;;
41903;SDS011;27586;51.124;4.182;2024-02-14T03:40:36;8.80;;;6.78;;
41903;SDS011;27586;51.124;4.182;2024-02-14T03:43:03;8.27;;;7.47;;
41903;SDS011;27586;51.124;4.182;2024-02-14T03:45:29;7.82;;;6.93;;
41903;SDS011;27586;51.124;4.182;2024-02-14T03:47:55;7.95;;;7.18;;
41903;SDS011;27586;51.124;4.182;2024-02-14T03:50:21;8.57;;;7.72;;
41903;SDS011;27586;51.124;4.182;2024-02-14T03:52:48;8.77;;;7.45;;
41903;SDS011;27586;51.124;4.182;2024-02-14T03:55:13;7.95;;;7.20;;
41903;SDS011;27586;51.124;4.182;2024-02-14T03:57:42;9.18;;;8.07;;
41903;SDS011;27586;51.124;4.182;2024-02-14T04:00:10;8.48;;;7.68;;
41903;SDS011;27586;51.124;4.182;2024-02-14T04:02:37;7.90;;;7.20;;
41903;SDS011;27586;51.124;4.182;2024-02-14T04:05:02;9.32;;;7.90;;
41903;SDS011;27586;51.124;4.182;2024-02-14T04:07:28;8.43;;;7.63;;
41903;SDS011;27586;51.124;4.182;2024-02-14T04:09:55;10.07;;;7.60;;
41903;SDS011;27586;51.124;4.182;2024-02-14T04:12:21;11.25;;;8.35;;
41903;SDS011;27586;51.124;4.182;2024-02-14T04:14:47;9.60;;;7.90;;
41903;SDS011;27586;51.124;4.182;2024-02-14T04:17:13;8.90;;;7.57;;
41903;SDS011;27586;51.124;4.182;2024-02-14T04:19:39;8.88;;;7.47;;
41903;SDS011;27586;51.124;4.182;2024-02-14T04:22:05;8.27;;;7.47;;
41903;SDS011;27586;51.124;4.182;2024-02-14T04:24:32;11.73;;;8.30;;
41903;SDS011;27586;51.124;4.182;2024-02-14T04:26:59;8.70;;;7.35;;
41903;SDS011;27586;51.124;4.182;2024-02-14T04:29:27;8.80;;;7.53;;
41903;SDS011;27586;51.124;4.182;2024-02-14T04:31:55;7.75;;;7.03;;
41903;SDS011;27586;51.124;4.182;2024-02-14T04:34:21;8.75;;;7.70;;
41903;SDS011;27586;51.124;4.182;2024-02-14T04:36:46;9.73;;;8.02;;
41903;SDS011;27586;51.124;4.182;2024-02-14T04:39:12;9.02;;;8.15;;
41903;SDS011;27586;51.124;4.182;2024-02-14T04:41:38;9.25;;;8.18;;
41903;SDS011;27586;51.124;4.182;2024-02-14T04:44:04;10.00;;;8.05;;
41903;SDS011;27586;51.124;4.182;2024-02-14T04:46:33;12.35;;;8.77;;
41903;SDS011;27586;51.124;4.182;2024-02-14T04:49:00;9.40;;;8.38;;
41903;SDS011;27586;51.124;4.182;2024-02-14T04:51:28;9.55;;;8.05;;
41903;SDS011;27586;51.124;4.182;2024-02-14T04:53:55;9.45;;;8.45;;
41903;SDS011;27586;51.124;4.182;2024-02-14T04:56:24;9.07;;;8.15;;
41903;SDS011;27586;51.124;4.182;2024-02-14T04:58:50;10.02;;;8.48;;
41903;SDS011;27586;51.124;4.182;2024-02-14T05:01:17;12.75;;;8.43;;
41903;SDS011;27586;51.124;4.182;2024-02-14T05:03:43;9.73;;;8.50;;
41903;SDS011;27586;51.124;4.182;2024-02-14T05:06:09;8.80;;;8.00;;
41903;SDS011;27586;51.124;4.182;2024-02-14T05:08:34;8.75;;;7.97;;
41903;SDS011;27586;51.124;4.182;2024-02-14T05:11:00;8.27;;;7.47;;
41903;SDS011;27586;51.124;4.182;2024-02-14T05:13:26;9.20;;;8.00;;
41903;SDS011;27586;51.124;4.182;2024-02-14T05:15:51;9.10;;;8.20;;
41903;SDS011;27586;51.124;4.182;2024-02-14T05:18:17;8.65;;;7.80;;
41903;SDS011;27586;51.124;4.182;2024-02-14T05:20:43;9.57;;;7.63;;
41903;SDS011;27586;51.124;4.182;2024-02-14T05:23:09;9.35;;;8.13;;
41903;SDS011;27586;51.124;4.182;2024-02-14T05:25:36;8.90;;;7.72;;
41903;SDS011;27586;51.124;4.182;2024-02-14T05:28:01;10.02;;;8.15;;
41903;SDS011;27586;51.124;4.182;2024-02-14T05:30:27;8.68;;;7.78;;
41903;SDS011;27586;51.124;4.182;2024-02-14T05:32:53;9.95;;;8.07;;
41903;SDS011;27586;51.124;4.182;2024-02-14T05:35:22;8.15;;;7.35;;
41903;SDS011;27586;51.124;4.182;2024-02-14T05:37:47;8.73;;;7.85;;
41903;SDS011;27586;51.124;4.182;2024-02-14T05:40:14;8.63;;;7.68;;
41903;SDS011;27586;51.124;4.182;2024-02-14T05:42:41;9.52;;;8.00;;
41903;SDS011;27586;51.124;4.182;2024-02-14T05:45:07;9.70;;;8.63;;
41903;SDS011;27586;51.124;4.182;2024-02-14T05:47:34;9.48;;;8.30;;
41903;SDS011;27586;51.124;4.182;2024-02-14T05:50:00;11.65;;;8.68;;
41903;SDS011;27586;51.124;4.182;2024-02-14T05:52:26;9.80;;;8.80;;
41903;SDS011;27586;51.124;4.182;2024-02-14T05:54:52;11.93;;;8.60;;
41903;SDS011;27586;51.124;4.182;2024-02-14T05:57:19;11.40;;;8.23;;
41903;SDS011;27586;51.124;4.182;2024-02-14T05:59:45;9.77;;;8.77;;
41903;SDS011;27586;51.124;4.182;2024-02-14T06:02:10;8.73;;;7.82;;
41903;SDS011;27586;51.124;4.182;2024-02-14T06:04:36;9.00;;;7.80;;
41903;SDS011;27586;51.124;4.182;2024-02-14T06:07:02;11.75;;;8.48;;
41903;SDS011;27586;51.124;4.182;2024-02-14T06:09:30;8.48;;;7.65;;
41903;SDS011;27586;51.124;4.182;2024-02-14T06:11:56;9.35;;;8.45;;
41903;SDS011;27586;51.124;4.182;2024-02-14T06:14:21;11.00;;;7.82;;
41903;SDS011;27586;51.124;4.182;2024-02-14T06:16:47;12.32;;;8.02;;
41903;SDS011;27586;51.124;4.182;2024-02-14T06:19:13;9.25;;;7.78;;
41903;SDS011;27586;51.124;4.182;2024-02-14T06:21:38;8.85;;;7.43;;
41903;SDS011;27586;51.124;4.182;2024-02-14T06:24:04;8.30;;;7.50;;
41903;SDS011;27586;51.124;4.182;2024-02-14T06:26:30;9.38;;;7.43;;
41903;SDS011;27586;51.124;4.182;2024-02-14T06:28:58;11.85;;;8.13;;
41903;SDS011;27586;51.124;4.182;2024-02-14T06:31:23;8.55;;;7.47;;
41903;SDS011;27586;51.124;4.182;2024-02-14T06:33:49;10.48;;;7.57;;
41903;SDS011;27586;51.124;4.182;2024-02-14T06:36:15;8.55;;;7.68;;
41903;SDS011;27586;51.124;4.182;2024-02-14T06:38:40;8.32;;;7.43;;
41903;SDS011;27586;51.124;4.182;2024-02-14T06:41:06;10.52;;;8.57;;
41903;SDS011;27586;51.124;4.182;2024-02-14T06:43:32;11.55;;;8.90;;
41903;SDS011;27586;51.124;4.182;2024-02-14T06:45:58;9.90;;;8.85;;
41903;SDS011;27586;51.124;4.182;2024-02-14T06:48:23;12.95;;;9.52;;
41903;SDS011;27586;51.124;4.182;2024-02-14T06:50:52;12.13;;;8.90;;
41903;SDS011;27586;51.124;4.182;2024-02-14T06:53:18;12.75;;;8.88;;
41903;SDS011;27586;51.124;4.182;2024-02-14T06:55:44;12.48;;;8.98;;
41903;SDS011;27586;51.124;4.182;2024-02-14T06:58:09;9.40;;;8.50;;
41903;SDS011;27586;51.124;4.182;2024-02-14T07:00:35;10.05;;;8.10;;
41903;SDS011;27586;51.124;4.182;2024-02-14T07:03:01;12.02;;;9.00;;
41903;SDS011;27586;51.124;4.182;2024-02-14T07:05:27;8.75;;;7.55;;
41903;SDS011;27586;51.124;4.182;2024-02-14T07:07:54;11.27;;;8.55;;
41903;SDS011;27586;51.124;4.182;2024-02-14T07:10:22;10.55;;;8.75;;
41903;SDS011;27586;51.124;4.182;2024-02-14T07:12:48;9.65;;;8.25;;
41903;SDS011;27586;51.124;4.182;2024-02-14T07:15:13;10.27;;;8.35;;
41903;SDS011;27586;51.124;4.182;2024-02-14T07:17:39;8.98;;;8.07;;
41903;SDS011;27586;51.124;4.182;2024-02-14T07:20:05;11.10;;;8.18;;
41903;SDS011;27586;51.124;4.182;2024-02-14T07:22:35;8.73;;;7.88;;
41903;SDS011;27586;51.124;4.182;2024-02-14T07:25:01;10.88;;;7.97;;
41903;SDS011;27586;51.124;4.182;2024-02-14T07:27:27;9.00;;;8.00;;
41903;SDS011;27586;51.124;4.182;2024-02-14T07:29:53;9.52;;;8.52;;
41903;SDS011;27586;51.124;4.182;2024-02-14T07:32:19;9.65;;;8.50;;
41903;SDS011;27586;51.124;4.182;2024-02-14T07:34:45;12.30;;;8.52;;
41903;SDS011;27586;51.124;4.182;2024-02-14T07:37:11;12.48;;;9.02;;
41903;SDS011;27586;51.124;4.182;2024-02-14T07:39:37;10.85;;;8.50;;
41903;SDS011;27586;51.124;4.182;2024-02-14T07:42:02;11.18;;;8.35;;
41903;SDS011;27586;51.124;4.182;2024-02-14T07:44:29;11.20;;;8.63;;
41903;SDS011;27586;51.124;4.182;2024-02-14T07:46:54;9.75;;;8.38;;
41903;SDS011;27586;51.124;4.182;2024-02-14T07:49:20;12.82;;;8.45;;
41903;SDS011;27586;51.124;4.182;2024-02-14T07:51:46;10.20;;;8.40;;
41903;SDS011;27586;51.124;4.182;2024-02-14T07:54:11;11.00;;;8.13;;
41903;SDS011;27586;51.124;4.182;2024-02-14T07:56:38;11.10;;;8.18;;
41903;SDS011;27586;51.124;4.182;2024-02-14T07:59:04;9.10;;;7.68;;
41903;SDS011;27586;51.124;4.182;2024-02-14T08:01:30;10.15;;;7.90;;
41903;SDS011;27586;51.124;4.182;2024-02-14T08:03:57;11.73;;;8.27;;
41903;SDS011;27586;51.124;4.182;2024-02-14T08:06:23;9.10;;;7.80;;
41903;SDS011;27586;51.124;4.182;2024-02-14T08:08:49;10.55;;;7.53;;
41903;SDS011;27586;51.124;4.182;2024-02-14T08:11:19;10.85;;;7.55;;
41903;SDS011;27586;51.124;4.182;2024-02-14T08:13:45;8.77;;;7.88;;
41903;SDS011;27586;51.124;4.182;2024-02-14T08:16:11;10.57;;;7.85;;
41903;SDS011;27586;51.124;4.182;2024-02-14T08:18:37;8.70;;;7.80;;
41903;SDS011;27586;51.124;4.182;2024-02-14T08:21:04;8.35;;;7.40;;
41903;SDS011;27586;51.124;4.182;2024-02-14T08:23:31;10.00;;;8.05;;
41903;SDS011;27586;51.124;4.182;2024-02-14T08:25:57;9.55;;;8.30;;
41903;SDS011;27586;51.124;4.182;2024-02-14T08:28:22;12.05;;;7.57;;
41903;SDS011;27586;51.124;4.182;2024-02-14T08:30:48;8.52;;;7.65;;
41903;SDS011;27586;51.124;4.182;2024-02-14T08:33:14;9.05;;;7.63;;
41903;SDS011;27586;51.124;4.182;2024-02-14T08:35:39;11.85;;;7.78;;
41903;SDS011;27586;51.124;4.182;2024-02-14T08:38:05;9.88;;;7.75;;
41903;SDS011;27586;51.124;4.182;2024-02-14T08:40:31;9.23;;;7.30;;
41903;SDS011;27586;51.124;4.182;2024-02-14T08:42:57;9.43;;;7.25;;
41903;SDS011;27586;51.124;4.182;2024-02-14T08:45:24;7.95;;;6.97;;
41903;SDS011;27586;51.124;4.182;2024-02-14T08:47:50;9.90;;;7.43;;
41903;SDS011;27586;51.124;4.182;2024-02-14T08:50:16;9.60;;;7.45;;
41903;SDS011;27586;51.124;4.182;2024-02-14T08:52:42;8.43;;;7.15;;
41903;SDS011;27586;51.124;4.182;2024-02-14T08:55:07;8.07;;;7.07;;
41903;SDS011;27586;51.124;4.182;2024-02-14T08:57:39;9.48;;;7.70;;
41903;SDS011;27586;51.124;4.182;2024-02-14T09:00:06;8.38;;;7.50;;
41903;SDS011;27586;51.124;4.182;2024-02-14T09:02:32;13.30;;;7.55;;
41903;SDS011;27586;51.124;4.182;2024-02-14T09:04:59;8.48;;;7.60;;
41903;SDS011;27586;51.124;4.182;2024-02-14T09:07:26;12.07;;;7.45;;
41903;SDS011;27586;51.124;4.182;2024-02-14T09:09:52;11.98;;;7.65;;
41903;SDS011;27586;51.124;4.182;2024-02-14T09:12:17;10.82;;;7.53;;
41903;SDS011;27586;51.124;4.182;2024-02-14T09:14:43;7.45;;;6.75;;
41903;SDS011;27586;51.124;4.182;2024-02-14T09:17:09;9.73;;;7.32;;
41903;SDS011;27586;51.124;4.182;2024-02-14T09:19:35;11.07;;;7.80;;
41903;SDS011;27586;51.124;4.182;2024-02-14T09:22:01;10.32;;;7.47;;
41903;SDS011;27586;51.124;4.182;2024-02-14T09:24:31;8.93;;;7.03;;
41903;SDS011;27586;51.124;4.182;2024-02-14T09:26:57;9.57;;;7.93;;
41903;SDS011;27586;51.124;4.182;2024-02-14T09:29:23;7.30;;;6.57;;
41903;SDS011;27586;51.124;4.182;2024-02-14T09:31:50;10.00;;;7.25;;
41903;SDS011;27586;51.124;4.182;2024-02-14T09:34:16;10.32;;;7.35;;
41903;SDS011;27586;51.124;4.182;2024-02-14T09:36:44;7.65;;;6.85;;
41903;SDS011;27586;51.124;4.182;2024-02-14T09:39:13;8.27;;;6.60;;
41903;SDS011;27586;51.124;4.182;2024-02-14T09:41:42;7.78;;;6.60;;
41903;SDS011;27586;51.124;4.182;2024-02-14T09:44:12;9.02;;;7.07;;
41903;SDS011;27586;51.124;4.182;2024-02-14T09:46:38;9.23;;;6.68;;
41903;SDS011;27586;51.124;4.182;2024-02-14T09:49:05;7.57;;;6.55;;
41903;SDS011;27586;51.124;4.182;2024-02-14T09:51:31;7.22;;;6.50;;
41903;SDS011;27586;51.124;4.182;2024-02-14T09:53:59;7.45;;;6.68;;
41903;SDS011;27586;51.124;4.182;2024-02-14T09:56:26;6.40;;;5.75;;
41903;SDS011;27586;51.124;4.182;2024-02-14T09:58:53;6.78;;;5.97;;
41903;SDS011;27586;51.124;4.182;2024-02-14T10:01:22;7.82;;;5.72;;
41903;SDS011;27586;51.124;4.182;2024-02-14T10:03:52;7.93;;;6.40;;
41903;SDS011;27586;51.124;4.182;2024-02-14T10:06:21;6.68;;;5.32;;
41903;SDS011;27586;51.124;4.182;2024-02-14T10:08:47;6.80;;;6.07;;
41903;SDS011;27586;51.124;4.182;2024-02-14T10:11:14;6.97;;;5.57;;
41903;SDS011;27586;51.124;4.182;2024-02-14T10:13:40;6.15;;;5.47;;
41903;SDS011;27586;51.124;4.182;2024-02-14T10:16:07;6.03;;;5.25;;
41903;SDS011;27586;51.124;4.182;2024-02-14T10:18:33;6.50;;;5.50;;
41903;SDS011;27586;51.124;4.182;2024-02-14T10:20:59;5.70;;;5.15;;
41903;SDS011;27586;51.124;4.182;2024-02-14T10:23:26;5.80;;;5.22;;
41903;SDS011;27586;51.124;4.182;2024-02-14T10:25:53;5.22;;;4.32;;
41903;SDS011;27586;51.124;4.182;2024-02-14T10:28:21;5.60;;;5.00;;
41903;SDS011;27586;51.124;4.182;2024-02-14T10:30:47;5.43;;;4.70;;
41903;SDS011;27586;51.124;4.182;2024-02-14T10:33:16;5.25;;;4.75;;
41903;SDS011;27586;51.124;4.182;2024-02-14T10:35:42;5.65;;;4.78;;
41903;SDS011;27586;51.124;4.182;2024-02-14T10:38:08;6.10;;;5.10;;
41903;SDS011;27586;51.124;4.182;2024-02-14T10:40:36;6.88;;;4.72;;
41903;SDS011;27586;51.124;4.182;2024-02-14T10:43:04;5.32;;;4.82;;
41903;SDS011;27586;51.124;4.182;2024-02-14T10:45:34;4.78;;;4.38;;
41903;SDS011;27586;51.124;4.182;2024-02-14T10:48:01;4.85;;;4.30;;
41903;SDS011;27586;51.124;4.182;2024-02-14T10:50:30;4.78;;;4.15;;
41903;SDS011;27586;51.124;4.182;2024-02-14T10:52:58;5.30;;;4.90;;
41903;SDS011;27586;51.124;4.182;2024-02-14T10:55:29;5.72;;;4.47;;
41903;SDS011;27586;51.124;4.182;2024-02-14T10:57:57;5.50;;;4.32;;
41903;SDS011;27586;51.124;4.182;2024-02-14T11:00:23;4.45;;;4.05;;
41903;SDS011;27586;51.124;4.182;2024-02-14T11:02:49;4.60;;;4.18;;
41903;SDS011;27586;51.124;4.182;2024-02-14T11:05:18;4.65;;;4.25;;
41903;SDS011;27586;51.124;4.182;2024-02-14T11:07:47;5.32;;;4.82;;
41903;SDS011;27586;51.124;4.182;2024-02-14T11:10:14;4.65;;;4.25;;
41903;SDS011;27586;51.124;4.182;2024-02-14T11:12:41;5.15;;;4.75;;
41903;SDS011;27586;51.124;4.182;2024-02-14T11:17:36;5.47;;;5.00;;
41903;SDS011;27586;51.124;4.182;2024-02-14T11:20:16;5.32;;;4.90;;
41903;SDS011;27586;51.124;4.182;2024-02-14T11:22:53;5.20;;;4.70;;
41903;SDS011;27586;51.124;4.182;2024-02-14T11:25:38;5.15;;;4.72;;
41903;SDS011;27586;51.124;4.182;2024-02-14T11:28:14;5.38;;;4.97;;
41903;SDS011;27586;51.124;4.182;2024-02-14T11:30:51;5.88;;;5.38;;
41903;SDS011;27586;51.124;4.182;2024-02-14T11:35:45;5.50;;;5.00;;
41903;SDS011;27586;51.124;4.182;2024-02-14T11:38:16;5.80;;;5.05;;
41903;SDS011;27586;51.124;4.182;2024-02-14T11:40:43;6.10;;;5.55;;
41903;SDS011;27586;51.124;4.182;2024-02-14T11:43:16;6.05;;;5.45;;
41903;SDS011;27586;51.124;4.182;2024-02-14T11:45:43;6.18;;;5.57;;
41903;SDS011;27586;51.124;4.182;2024-02-14T11:48:13;6.45;;;5.85;;
41903;SDS011;27586;51.124;4.182;2024-02-14T11:50:39;6.10;;;5.60;;
41903;SDS011;27586;51.124;4.182;2024-02-14T11:53:06;5.93;;;5.43;;
41903;SDS011;27586;51.124;4.182;2024-02-14T11:55:36;5.80;;;5.30;;
41903;SDS011;27586;51.124;4.182;2024-02-14T11:58:09;6.10;;;5.53;;
41903;SDS011;27586;51.124;4.182;2024-02-14T12:00:46;6.40;;;5.90;;
41903;SDS011;27586;51.124;4.182;2024-02-14T12:03:19;6.18;;;5.65;;
41903;SDS011;27586;51.124;4.182;2024-02-14T12:05:47;7.32;;;6.53;;
41903;SDS011;27586;51.124;4.182;2024-02-14T12:08:15;7.15;;;6.45;;
41903;SDS011;27586;51.124;4.182;2024-02-14T12:10:43;6.90;;;6.30;;
41903;SDS011;27586;51.124;4.182;2024-02-14T12:13:13;7.18;;;6.50;;
41903;SDS011;27586;51.124;4.182;2024-02-14T12:18:06;7.85;;;7.07;;
41903;SDS011;27586;51.124;4.182;2024-02-14T12:20:35;8.70;;;7.80;;
41903;SDS011;27586;51.124;4.182;2024-02-14T12:23:02;10.35;;;8.93;;
41903;SDS011;27586;51.124;4.182;2024-02-14T12:25:29;10.18;;;9.20;;
41903;SDS011;27586;51.124;4.182;2024-02-14T12:27:56;10.82;;;9.70;;
41903;SDS011;27586;51.124;4.182;2024-02-14T12:30:23;11.00;;;9.93;;
41903;SDS011;27586;51.124;4.182;2024-02-14T12:33:23;10.95;;;9.60;;
41903;SDS011;27586;51.124;4.182;2024-02-14T12:35:55;11.38;;;10.25;;
41903;SDS011;27586;51.124;4.182;2024-02-14T12:38:23;10.48;;;9.52;;
41903;SDS011;27586;51.124;4.182;2024-02-14T12:40:49;11.88;;;10.77;;
41903;SDS011;27586;51.124;4.182;2024-02-14T12:43:19;9.90;;;8.90;;
41903;SDS011;27586;51.124;4.182;2024-02-14T12:45:45;8.82;;;8.02;;
41903;SDS011;27586;51.124;4.182;2024-02-14T12:48:11;9.10;;;8.02;;
41903;SDS011;27586;51.124;4.182;2024-02-14T12:50:38;8.38;;;7.57;;
41903;SDS011;27586;51.124;4.182;2024-02-14T12:53:09;9.23;;;7.93;;
41903;SDS011;27586;51.124;4.182;2024-02-14T12:55:35;8.63;;;7.55;;
41903;SDS011;27586;51.124;4.182;2024-02-14T12:58:01;8.25;;;7.32;;
41903;SDS011;27586;51.124;4.182;2024-02-14T13:00:27;7.55;;;6.82;;
41903;SDS011;27586;51.124;4.182;2024-02-14T13:02:54;7.35;;;6.65;;
41903;SDS011;27586;51.124;4.182;2024-02-14T13:05:20;7.65;;;6.95;;
41903;SDS011;27586;51.124;4.182;2024-02-14T13:07:45;7.95;;;6.90;;
41903;SDS011;27586;51.124;4.182;2024-02-14T13:10:12;7.45;;;6.72;;
41903;SDS011;27586;51.124;4.182;2024-02-14T13:12:37;9.30;;;6.63;;
41903;SDS011;27586;51.124;4.182;2024-02-14T13:15:04;7.70;;;5.93;;
41903;SDS011;27586;51.124;4.182;2024-02-14T13:17:30;6.75;;;5.95;;
41903;SDS011;27586;51.124;4.182;2024-02-14T13:19:56;7.47;;;6.70;;
41903;SDS011;27586;51.124;4.182;2024-02-14T13:22:24;8.48;;;6.43;;
41903;SDS011;27586;51.124;4.182;2024-02-14T13:24:53;7.07;;;5.78;;
41903;SDS011;27586;51.124;4.182;2024-02-14T13:27:19;6.60;;;5.90;;
41903;SDS011;27586;51.124;4.182;2024-02-14T13:29:48;8.15;;;5.72;;
41903;SDS011;27586;51.124;4.182;2024-02-14T13:32:14;7.38;;;5.20;;
41903;SDS011;27586;51.124;4.182;2024-02-14T13:34:40;8.23;;;6.07;;
41903;SDS011;27586;51.124;4.182;2024-02-14T13:37:06;5.75;;;5.25;;
41903;SDS011;27586;51.124;4.182;2024-02-14T13:39:34;6.15;;;5.57;;
41903;SDS011;27586;51.124;4.182;2024-02-14T13:42:00;5.63;;;5.00;;
41903;SDS011;27586;51.124;4.182;2024-02-14T13:44:26;7.00;;;5.07;;
41903;SDS011;27586;51.124;4.182;2024-02-14T13:46:52;4.53;;;4.13;;
41903;SDS011;27586;51.124;4.182;2024-02-14T13:49:18;6.22;;;4.45;;
41903;SDS011;27586;51.124;4.182;2024-02-14T13:51:50;5.38;;;4.35;;
41903;SDS011;27586;51.124;4.182;2024-02-14T13:54:20;5.68;;;4.68;;
41903;SDS011;27586;51.124;4.182;2024-02-14T13:56:46;6.90;;;5.82;;
41903;SDS011;27586;51.124;4.182;2024-02-14T13:59:15;6.13;;;4.60;;
41903;SDS011;27586;51.124;4.182;2024-02-14T14:01:41;4.78;;;4.32;;
41903;SDS011;27586;51.124;4.182;2024-02-14T14:04:07;5.25;;;4.50;;
41903;SDS011;27586;51.124;4.182;2024-02-14T14:06:33;6.03;;;4.35;;
41903;SDS011;27586;51.124;4.182;2024-02-14T14:08:59;4.45;;;3.63;;
41903;SDS011;27586;51.124;4.182;2024-02-14T14:11:27;4.63;;;3.50;;
41903;SDS011;27586;51.124;4.182;2024-02-14T14:13:53;4.28;;;3.88;;
41903;SDS011;27586;51.124;4.182;2024-02-14T14:16:19;5.80;;;3.85;;
41903;SDS011;27586;51.124;4.182;2024-02-14T14:18:46;6.38;;;3.80;;
41903;SDS011;27586;51.124;4.182;2024-02-14T14:21:13;3.33;;;2.95;;
41903;SDS011;27586;51.124;4.182;2024-02-14T14:23:40;6.05;;;3.80;;
41903;SDS011;27586;51.124;4.182;2024-02-14T14:26:06;5.15;;;3.50;;
41903;SDS011;27586;51.124;4.182;2024-02-14T14:28:31;5.13;;;3.17;;
41903;SDS011;27586;51.124;4.182;2024-02-14T14:30:57;3.78;;;3.30;;
41903;SDS011;27586;51.124;4.182;2024-02-14T14:33:25;5.18;;;3.42;;
41903;SDS011;27586;51.124;4.182;2024-02-14T14:35:51;5.90;;;3.67;;
41903;SDS011;27586;51.124;4.182;2024-02-14T14:38:20;4.50;;;3.75;;
41903;SDS011;27586;51.124;4.182;2024-02-14T14:40:46;3.72;;;3.30;;
41903;SDS011;27586;51.124;4.182;2024-02-14T14:43:13;5.05;;;3.55;;
41903;SDS011;27586;51.124;4.182;2024-02-14T14:45:39;4.55;;;3.67;;
41903;SDS011;27586;51.124;4.182;2024-02-14T14:48:06;4.50;;;3.50;;
41903;SDS011;27586;51.124;4.182;2024-02-14T14:50:34;5.13;;;3.85;;